Time;durP1;ratioP1;P1;durP2;ratioP2;P2;SDS_P1;SDS_P2;PMS_P1;PMS_P2;Temp;Humidity;BMP_temperature;BMP_pressure;BME280_temperature;BME280_humidity;BME280_pressure;Samples;Min_cycle;Max_cycle;Signal;HPM_P1;HPM_P2
2021/04/15 00:00:42;;;;;;;13.60;10.10;;;;;;;;;;4973373;28;20479;-66
2021/04/15 00:03:10;;;;;;;11.10;10.00;;;;;;;;;;4973130;28;20967;-66
2021/04/15 00:05:38;;;;;;;10.53;9.53;;;;;;;;;;4978361;28;20451;-65
2021/04/15 00:08:05;;;;;;;11.47;9.30;;;;;;;;;;4985749;28;20829;-66
2021/04/15 00:10:32;;;;;;;10.77;9.73;;;;;;;;;;4973275;28;20853;-67
2021/04/15 00:13:00;;;;;;;11.70;9.43;;;;;;;;;;4974397;28;20478;-66
2021/04/15 00:15:27;;;;;;;10.27;9.27;;;;;;;;;;4968778;28;20463;-65
2021/04/15 00:17:54;;;;;;;10.33;9.30;;;;;;;;;;4973117;28;20494;-66
2021/04/15 00:20:22;;;;;;;10.30;9.20;;;;;;;;;;4975249;28;20510;-65
2021/04/15 00:22:48;;;;;;;11.13;10.13;;;;;;;;;;4977067;28;20469;-65
2021/04/15 00:25:15;;;;;;;10.50;9.50;;;;;;;;;;4979924;28;20984;-66
2021/04/15 00:27:42;;;;;;;9.63;8.80;;;;;;;;;;4972933;28;20517;-65
2021/04/15 00:30:09;;;;;;;9.60;8.80;;;;;;;;;;4978642;28;20515;-65
2021/04/15 00:32:36;;;;;;;10.13;9.10;;;;;;;;;;4979704;28;20812;-65
2021/04/15 00:35:02;;;;;;;10.43;9.47;;;;;;;;;;4976218;28;20470;-63
2021/04/15 00:37:30;;;;;;;9.47;8.63;;;;;;;;;;4988364;28;20839;-64
2021/04/15 00:39:56;;;;;;;10.60;9.50;;;;;;;;;;4975714;28;20661;-66
2021/04/15 00:42:23;;;;;;;10.57;9.63;;;;;;;;;;4977736;28;20490;-67
2021/04/15 00:44:50;;;;;;;10.30;9.23;;;;;;;;;;4976367;28;20521;-65
2021/04/15 00:47:20;;;;;;;10.23;9.33;;;;;;;;;;4975644;28;20463;-64
2021/04/15 00:49:51;;;;;;;9.83;8.93;;;;;;;;;;4965160;28;20857;-65
2021/04/15 00:52:19;;;;;;;10.00;9.10;;;;;;;;;;4973035;28;20478;-64
2021/04/15 00:54:48;;;;;;;10.03;9.13;;;;;;;;;;4976239;28;20451;-64
2021/04/15 00:57:17;;;;;;;10.90;9.90;;;;;;;;;;4986270;28;20467;-64
2021/04/15 00:59:44;;;;;;;10.93;10.03;;;;;;;;;;4975749;28;20491;-65
2021/04/15 01:02:11;;;;;;;10.93;9.20;;;;;;;;;;4975428;28;20487;-65
2021/04/15 01:04:38;;;;;;;10.93;9.40;;;;;;;;;;4975012;28;20461;-65
2021/04/15 01:07:05;;;;;;;9.60;8.60;;;;;;;;;;4975124;28;20455;-65
2021/04/15 01:09:32;;;;;;;10.40;9.10;;;;;;;;;;4975729;28;20884;-65
2021/04/15 01:12:06;;;;;;;11.37;10.17;;;;;;;;;;4974610;28;20485;-66
2021/04/15 01:14:42;;;;;;;10.80;9.40;;;;;;;;;;4969087;28;20470;-66
2021/04/15 01:17:11;;;;;;;9.80;8.90;;;;;;;;;;4972270;28;20467;-66
2021/04/15 01:19:58;;;;;;;9.60;8.80;;;;;;;;;;4976026;28;20471;-66
2021/04/15 01:22:37;;;;;;;10.13;9.23;;;;;;;;;;4958735;28;20490;-66
2021/04/15 01:25:09;;;;;;;10.10;9.20;;;;;;;;;;4975619;28;20475;-66
2021/04/15 01:27:43;;;;;;;11.30;9.33;;;;;;;;;;4975193;28;20460;-65
2021/04/15 01:30:17;;;;;;;10.70;9.33;;;;;;;;;;4978751;28;21012;-65
2021/04/15 01:32:49;;;;;;;10.27;9.37;;;;;;;;;;4972128;28;20467;-67
2021/04/15 01:35:18;;;;;;;9.80;8.90;;;;;;;;;;4973435;28;20975;-66
2021/04/15 01:37:46;;;;;;;10.60;9.60;;;;;;;;;;4974501;28;20493;-66
2021/04/15 01:40:15;;;;;;;11.63;10.63;;;;;;;;;;4976005;28;20467;-66
2021/04/15 01:42:44;;;;;;;10.60;9.63;;;;;;;;;;4974755;28;20467;-65
2021/04/15 01:45:12;;;;;;;11.60;9.93;;;;;;;;;;4974692;28;20467;-66
2021/04/15 01:47:41;;;;;;;10.50;9.50;;;;;;;;;;4974396;28;20502;-65
2021/04/15 01:50:10;;;;;;;10.60;9.50;;;;;;;;;;4972373;28;20499;-68
2021/04/15 01:52:38;;;;;;;10.80;9.80;;;;;;;;;;4973774;28;20467;-66
2021/04/15 01:55:08;;;;;;;10.20;9.30;;;;;;;;;;4975092;28;20958;-66
2021/04/15 01:57:38;;;;;;;10.57;9.57;;;;;;;;;;4974758;28;20467;-66
2021/04/15 02:00:06;;;;;;;10.20;9.20;;;;;;;;;;4972683;28;20487;-65
2021/04/15 02:02:40;;;;;;;10.93;9.93;;;;;;;;;;4962906;28;20538;-65
2021/04/15 02:05:10;;;;;;;12.70;9.80;;;;;;;;;;4983317;28;20474;-65
2021/04/15 02:07:39;;;;;;;9.40;8.60;;;;;;;;;;4969793;28;20460;-65
2021/04/15 02:10:08;;;;;;;10.27;8.53;;;;;;;;;;4956022;28;20492;-65
2021/04/15 02:12:36;;;;;;;10.73;9.73;;;;;;;;;;4966566;28;20476;-66
2021/04/15 02:15:05;;;;;;;9.10;8.37;;;;;;;;;;4974884;28;21122;-66
2021/04/15 02:17:34;;;;;;;9.57;8.67;;;;;;;;;;4973231;28;20479;-66
2021/04/15 02:20:04;;;;;;;10.47;9.33;;;;;;;;;;4983260;28;20481;-65
2021/04/15 02:22:34;;;;;;;9.47;8.57;;;;;;;;;;4992555;28;20493;-66
2021/04/15 02:25:03;;;;;;;9.90;8.57;;;;;;;;;;4974370;28;20945;-66
2021/04/15 02:27:33;;;;;;;10.90;9.13;;;;;;;;;;4974014;28;20451;-66
2021/04/15 02:30:01;;;;;;;9.80;8.73;;;;;;;;;;4990376;28;20503;-66
2021/04/15 02:32:29;;;;;;;8.60;7.80;;;;;;;;;;4978824;28;20967;-65
2021/04/15 02:34:58;;;;;;;8.70;7.80;;;;;;;;;;4975744;28;20462;-65
2021/04/15 02:37:29;;;;;;;9.27;8.20;;;;;;;;;;4982580;28;20947;-65
2021/04/15 02:39:59;;;;;;;10.10;9.10;;;;;;;;;;4976309;28;21006;-64
2021/04/15 02:42:27;;;;;;;9.60;8.63;;;;;;;;;;4973946;28;20494;-65
2021/04/15 02:44:58;;;;;;;8.40;7.63;;;;;;;;;;4972542;28;20467;-66
2021/04/15 02:47:29;;;;;;;8.70;7.80;;;;;;;;;;4974412;28;20459;-66
2021/04/15 02:49:57;;;;;;;9.50;8.70;;;;;;;;;;4973004;28;21002;-66
2021/04/15 02:52:26;;;;;;;8.93;7.53;;;;;;;;;;4974336;28;20451;-65
2021/04/15 02:54:53;;;;;;;9.07;8.17;;;;;;;;;;4970782;28;20474;-65
2021/04/15 02:57:23;;;;;;;7.97;7.20;;;;;;;;;;4956293;28;20476;-65
2021/04/15 02:59:54;;;;;;;9.70;7.93;;;;;;;;;;4967344;28;20872;-65
2021/04/15 03:02:22;;;;;;;9.40;8.50;;;;;;;;;;4974245;28;20502;-65
2021/04/15 03:04:51;;;;;;;8.20;7.53;;;;;;;;;;4975757;28;20467;-65
2021/04/15 03:07:18;;;;;;;8.87;7.97;;;;;;;;;;4973410;28;20448;-65
2021/04/15 03:09:45;;;;;;;9.60;8.60;;;;;;;;;;4979837;28;20491;-65
2021/04/15 03:12:14;;;;;;;9.80;7.90;;;;;;;;;;4974037;28;20451;-65
2021/04/15 03:14:43;;;;;;;8.93;8.13;;;;;;;;;;4972667;28;20971;-65
2021/04/15 03:17:10;;;;;;;9.67;8.67;;;;;;;;;;4973295;28;20473;-65
2021/04/15 03:19:38;;;;;;;10.60;7.97;;;;;;;;;;4978099;28;20493;-65
2021/04/15 03:22:06;;;;;;;9.90;8.57;;;;;;;;;;4971538;28;20487;-65
2021/04/15 03:24:34;;;;;;;8.90;7.87;;;;;;;;;;4990060;28;20460;-65
2021/04/15 03:27:03;;;;;;;9.53;8.43;;;;;;;;;;4984859;28;20461;-66
2021/04/15 03:29:32;;;;;;;9.60;8.63;;;;;;;;;;4977795;28;20492;-66
2021/04/15 03:32:07;;;;;;;9.70;8.83;;;;;;;;;;4977039;28;20457;-66
2021/04/15 03:34:38;;;;;;;9.17;8.37;;;;;;;;;;4984164;28;20469;-66
2021/04/15 03:37:05;;;;;;;9.30;8.50;;;;;;;;;;4982185;28;20481;-65
2021/04/15 03:39:34;;;;;;;12.23;9.77;;;;;;;;;;4978682;28;20494;-66
2021/04/15 03:42:04;;;;;;;9.90;9.00;;;;;;;;;;4974921;28;20491;-67
2021/04/15 03:44:33;;;;;;;12.23;9.83;;;;;;;;;;4972958;28;20479;-66
2021/04/15 03:47:00;;;;;;;10.87;9.77;;;;;;;;;;4957482;28;20452;-65
2021/04/15 03:49:31;;;;;;;9.73;8.73;;;;;;;;;;4974806;28;20489;-65
2021/04/15 03:52:00;;;;;;;10.40;9.40;;;;;;;;;;4974924;28;20470;-65
2021/04/15 03:54:29;;;;;;;9.97;9.07;;;;;;;;;;4973495;28;20475;-65
2021/04/15 03:56:57;;;;;;;9.93;9.13;;;;;;;;;;4972557;28;20955;-65
2021/04/15 03:59:28;;;;;;;11.67;9.77;;;;;;;;;;4973539;28;20492;-65
2021/04/15 04:01:56;;;;;;;12.43;10.30;;;;;;;;;;4971311;28;20548;-66
2021/04/15 04:04:29;;;;;;;10.70;9.60;;;;;;;;;;4968516;28;20478;-64
2021/04/15 04:06:57;;;;;;;12.50;11.30;;;;;;;;;;4975887;28;20454;-65
2021/04/15 04:09:25;;;;;;;10.43;9.60;;;;;;;;;;4986186;28;20490;-64
2021/04/15 04:11:54;;;;;;;11.57;10.47;;;;;;;;;;4982775;28;20467;-65
2021/04/15 04:14:23;;;;;;;11.47;10.37;;;;;;;;;;4972985;28;20455;-66
2021/04/15 04:16:53;;;;;;;12.50;11.30;;;;;;;;;;4968787;28;20840;-65
2021/04/15 04:19:21;;;;;;;12.43;11.43;;;;;;;;;;4971968;28;20486;-65
2021/04/15 04:21:51;;;;;;;12.47;11.13;;;;;;;;;;4972686;28;20475;-65
2021/04/15 04:24:21;;;;;;;12.47;11.37;;;;;;;;;;4972115;28;20494;-65
2021/04/15 04:26:51;;;;;;;12.00;10.77;;;;;;;;;;4981439;28;20553;-65
2021/04/15 04:31:50;;;;;;;11.97;10.80;;;;;;;;;;4977898;28;20483;-63
2021/04/15 04:34:18;;;;;;;11.97;11.00;;;;;;;;;;4982122;28;20473;-63
2021/04/15 04:36:46;;;;;;;11.83;10.83;;;;;;;;;;4986950;28;20506;-63
2021/04/15 04:39:14;;;;;;;13.40;12.10;;;;;;;;;;4984374;28;20477;-63
2021/04/15 04:41:54;;;;;;;12.00;10.90;;;;;;;;;;4972404;28;20997;-64
2021/04/15 04:44:23;;;;;;;12.30;11.30;;;;;;;;;;4967820;28;20954;-63
2021/04/15 04:46:52;;;;;;;13.20;12.00;;;;;;;;;;4972423;28;20502;-63
2021/04/15 04:49:21;;;;;;;12.47;11.20;;;;;;;;;;4960480;28;20483;-63
2021/04/15 04:51:49;;;;;;;13.17;11.97;;;;;;;;;;4953421;28;20440;-63
2021/04/15 04:54:17;;;;;;;13.60;12.53;;;;;;;;;;4963580;28;20480;-63
2021/04/15 04:56:46;;;;;;;13.53;12.53;;;;;;;;;;4953129;28;20459;-63
2021/04/15 04:59:15;;;;;;;13.47;12.20;;;;;;;;;;4964084;28;20467;-62
2021/04/15 05:01:42;;;;;;;13.73;12.70;;;;;;;;;;4964061;28;20487;-63
2021/04/15 05:04:09;;;;;;;13.13;12.03;;;;;;;;;;4963904;28;20475;-63
2021/04/15 05:06:39;;;;;;;13.83;12.60;;;;;;;;;;4972608;28;20450;-63
2021/04/15 05:09:07;;;;;;;14.13;12.70;;;;;;;;;;4966550;28;20483;-62
2021/04/15 05:11:36;;;;;;;13.67;12.47;;;;;;;;;;4974156;28;20874;-63
2021/04/15 05:14:04;;;;;;;13.13;11.80;;;;;;;;;;4972305;28;20482;-63
2021/04/15 05:16:35;;;;;;;13.73;12.43;;;;;;;;;;4969463;28;20467;-62
2021/04/15 05:19:01;;;;;;;14.67;13.30;;;;;;;;;;4963557;28;20472;-63
2021/04/15 05:21:31;;;;;;;13.93;12.80;;;;;;;;;;4960273;28;20495;-63
2021/04/15 05:24:00;;;;;;;13.87;12.60;;;;;;;;;;4962888;28;20455;-62
2021/04/15 05:26:28;;;;;;;13.60;12.60;;;;;;;;;;4973432;28;20463;-62
2021/04/15 05:28:57;;;;;;;14.00;12.30;;;;;;;;;;4972914;28;20445;-62
2021/04/15 05:31:26;;;;;;;14.80;13.40;;;;;;;;;;4960934;28;20565;-62
2021/04/15 05:33:53;;;;;;;13.40;12.13;;;;;;;;;;4968318;28;20832;-62
2021/04/15 05:36:21;;;;;;;13.10;12.10;;;;;;;;;;4973809;28;20467;-62
2021/04/15 05:38:49;;;;;;;13.77;12.57;;;;;;;;;;4975651;28;20439;-62
2021/04/15 05:41:20;;;;;;;13.27;12.27;;;;;;;;;;4974269;28;20487;-62
2021/04/15 05:43:48;;;;;;;13.37;12.27;;;;;;;;;;4972591;28;20451;-62
2021/04/15 05:46:18;;;;;;;13.07;12.00;;;;;;;;;;4973282;28;20558;-62
2021/04/15 05:48:45;;;;;;;4.00;3.43;;;;;;;;;;4962539;28;20466;-63
2021/04/15 05:51:14;;;;;;;3.27;2.97;;;;;;;;;;4973403;28;20483;-62
2021/04/15 05:53:42;;;;;;;29.50;5.33;;;;;;;;;;4972390;28;20464;-62
2021/04/15 05:56:11;;;;;;;4.47;3.47;;;;;;;;;;4960951;28;20472;-62
2021/04/15 05:58:39;;;;;;;4.97;4.33;;;;;;;;;;4965717;28;20472;-63
2021/04/15 06:01:09;;;;;;;4.63;3.63;;;;;;;;;;4963494;28;20498;-63
2021/04/15 06:03:40;;;;;;;4.60;4.20;;;;;;;;;;4974592;28;20483;-63
2021/04/15 06:06:08;;;;;;;6.73;3.43;;;;;;;;;;4969320;28;20459;-63
2021/04/15 06:08:36;;;;;;;7.70;3.40;;;;;;;;;;4975274;28;20463;-62
2021/04/15 06:11:15;;;;;;;4.27;3.83;;;;;;;;;;4972802;28;20518;-63
2021/04/15 06:13:44;;;;;;;4.37;3.40;;;;;;;;;;4973694;28;20468;-63
2021/04/15 06:16:12;;;;;;;6.87;3.63;;;;;;;;;;4972510;28;20468;-63
2021/04/15 06:18:42;;;;;;;5.27;3.47;;;;;;;;;;4973398;28;20467;-63
2021/04/15 06:21:14;;;;;;;4.40;3.30;;;;;;;;;;4974686;28;20545;-62
2021/04/15 06:23:42;;;;;;;5.83;3.70;;;;;;;;;;4959436;28;20449;-63
2021/04/15 06:26:11;;;;;;;4.30;3.40;;;;;;;;;;4974968;28;20460;-62
2021/04/15 06:28:40;;;;;;;3.83;3.43;;;;;;;;;;4970816;28;20468;-62
2021/04/15 06:31:16;;;;;;;3.60;3.10;;;;;;;;;;4973832;28;20471;-62
2021/04/15 06:33:44;;;;;;;3.50;2.67;;;;;;;;;;4971594;28;21045;-62
2021/04/15 06:36:17;;;;;;;4.83;3.03;;;;;;;;;;4973667;28;20990;-62
2021/04/15 06:38:45;;;;;;;5.50;2.87;;;;;;;;;;4965623;28;20456;-62
2021/04/15 06:41:27;;;;;;;3.10;2.60;;;;;;;;;;4962899;28;20500;-62
2021/04/15 06:44:15;;;;;;;3.43;2.67;;;;;;;;;;4967749;28;20522;-62
2021/04/15 06:47:01;;;;;;;2.90;2.53;;;;;;;;;;4954337;28;20948;-62
2021/04/15 06:49:33;;;;;;;2.53;2.30;;;;;;;;;;4974063;28;20451;-62
2021/04/15 06:52:02;;;;;;;4.77;2.53;;;;;;;;;;4971996;28;20471;-62
2021/04/15 06:54:36;;;;;;;3.13;2.83;;;;;;;;;;4969617;28;20459;-62
2021/04/15 06:57:27;;;;;;;3.27;2.67;;;;;;;;;;4955478;28;20495;-62
2021/04/15 07:00:10;;;;;;;2.57;2.10;;;;;;;;;;4959226;28;20553;-62
2021/04/15 07:02:52;;;;;;;2.40;2.20;;;;;;;;;;4968531;28;20561;-62
2021/04/15 07:05:21;;;;;;;3.40;2.40;;;;;;;;;;4965822;28;20472;-63
2021/04/15 07:07:50;;;;;;;2.80;2.27;;;;;;;;;;4959371;28;20537;-64
2021/04/15 07:10:34;;;;;;;8.30;2.47;;;;;;;;;;4967725;28;20471;-64
2021/04/15 07:13:14;;;;;;;3.83;2.30;;;;;;;;;;4966649;28;20831;-62
2021/04/15 07:15:43;;;;;;;6.27;2.40;;;;;;;;;;4971607;28;20947;-62
2021/04/15 07:18:25;;;;;;;4.43;2.30;;;;;;;;;;4962408;28;20463;-62
2021/04/15 07:21:05;;;;;;;7.90;2.23;;;;;;;;;;4955901;28;20484;-62
2021/04/15 07:23:49;;;;;;;6.43;2.07;;;;;;;;;;4958233;28;20464;-62
2021/04/15 07:26:38;;;;;;;5.80;2.30;;;;;;;;;;4972658;28;20458;-62
2021/04/15 07:29:23;;;;;;;2.80;1.60;;;;;;;;;;4971225;28;20494;-62
2021/04/15 07:32:00;;;;;;;3.30;1.70;;;;;;;;;;4953362;28;20445;-62
2021/04/15 07:34:38;;;;;;;4.77;1.90;;;;;;;;;;4957730;28;20451;-62
2021/04/15 07:37:14;;;;;;;4.30;1.53;;;;;;;;;;4970290;28;20474;-61
2021/04/15 07:39:49;;;;;;;2.93;1.40;;;;;;;;;;4968253;28;21051;-61
2021/04/15 07:42:22;;;;;;;1.90;1.67;;;;;;;;;;4953313;28;20553;-61
2021/04/15 07:44:52;;;;;;;2.53;1.47;;;;;;;;;;4953917;29;20460;-61
2021/04/15 07:47:27;;;;;;;3.10;1.43;;;;;;;;;;4953496;28;20440;-61
2021/04/15 07:49:58;;;;;;;4.53;1.90;;;;;;;;;;4972933;28;20497;-61
2021/04/15 07:52:42;;;;;;;3.33;1.70;;;;;;;;;;4971443;28;20477;-62
2021/04/15 07:55:20;;;;;;;3.10;1.50;;;;;;;;;;4972736;28;20451;-61
2021/04/15 07:58:07;;;;;;;1.90;1.47;;;;;;;;;;4969340;28;20451;-61
2021/04/15 08:00:39;;;;;;;1.90;1.70;;;;;;;;;;4958923;28;20474;-61
2021/04/15 08:03:14;;;;;;;2.10;1.33;;;;;;;;;;4960283;28;20480;-61
2021/04/15 08:06:03;;;;;;;1.87;1.33;;;;;;;;;;4967012;28;20450;-61
2021/04/15 08:08:40;;;;;;;1.57;1.20;;;;;;;;;;4965535;28;20939;-61
2021/04/15 08:11:20;;;;;;;2.93;1.47;;;;;;;;;;4956302;28;20476;-61
2021/04/15 08:14:03;;;;;;;1.87;1.30;;;;;;;;;;4953391;28;20451;-61
2021/04/15 08:16:39;;;;;;;2.23;1.37;;;;;;;;;;4954913;28;20444;-61
2021/04/15 08:19:16;;;;;;;1.93;1.33;;;;;;;;;;4970146;28;20509;-61
2021/04/15 08:21:44;;;;;;;2.07;1.20;;;;;;;;;;4953983;28;21032;-61
2021/04/15 08:24:20;;;;;;;1.97;1.10;;;;;;;;;;4952817;28;20456;-61
2021/04/15 08:27:05;;;;;;;2.07;1.20;;;;;;;;;;4955800;28;20461;-61
2021/04/15 08:29:43;;;;;;;1.93;0.87;;;;;;;;;;4971656;28;20471;-62
2021/04/15 08:32:15;;;;;;;2.10;1.10;;;;;;;;;;4970714;28;20493;-61
2021/04/15 08:34:50;;;;;;;11.53;2.27;;;;;;;;;;4971312;28;20946;-64
2021/04/15 08:37:27;;;;;;;1.87;1.30;;;;;;;;;;4966354;28;20507;-63
2021/04/15 08:40:02;;;;;;;2.20;1.13;;;;;;;;;;4952953;28;20483;-63
2021/04/15 08:42:35;;;;;;;4.07;1.13;;;;;;;;;;4953978;28;20507;-63
2021/04/15 08:45:12;;;;;;;2.87;1.33;;;;;;;;;;4976060;28;20455;-63
2021/04/15 08:47:49;;;;;;;2.00;1.37;;;;;;;;;;4968674;28;20474;-63
2021/04/15 08:50:18;;;;;;;2.20;1.17;;;;;;;;;;4963615;28;20486;-63
2021/04/15 08:52:47;;;;;;;1.73;0.93;;;;;;;;;;4974208;28;20456;-64
2021/04/15 08:55:21;;;;;;;2.30;0.97;;;;;;;;;;4974772;28;20463;-63
2021/04/15 08:58:03;;;;;;;4.30;1.23;;;;;;;;;;4968438;28;20488;-66
2021/04/15 09:00:35;;;;;;;3.00;1.13;;;;;;;;;;4957099;28;20487;-65
2021/04/15 09:03:09;;;;;;;5.20;1.37;;;;;;;;;;4970470;28;20486;-66
2021/04/15 09:05:43;;;;;;;4.73;1.53;;;;;;;;;;4969900;28;20479;-65
2021/04/15 09:08:16;;;;;;;6.10;1.30;;;;;;;;;;4961300;28;20452;-66
2021/04/15 09:10:48;;;;;;;6.13;1.43;;;;;;;;;;4971992;28;20478;-65
2021/04/15 09:13:22;;;;;;;10.10;1.40;;;;;;;;;;4967031;28;20547;-65
2021/04/15 09:15:56;;;;;;;3.70;1.30;;;;;;;;;;4960422;28;20440;-66
2021/04/15 09:18:25;;;;;;;3.27;1.60;;;;;;;;;;4967002;28;20452;-66
2021/04/15 09:20:57;;;;;;;5.20;1.53;;;;;;;;;;4968202;28;20467;-65
2021/04/15 09:23:40;;;;;;;4.90;1.17;;;;;;;;;;4960589;28;20457;-65
2021/04/15 09:26:11;;;;;;;1.90;1.13;;;;;;;;;;4958205;28;20452;-66
2021/04/15 09:28:40;;;;;;;2.33;0.90;;;;;;;;;;4975128;28;20536;-66
2021/04/15 09:31:16;;;;;;;4.23;1.20;;;;;;;;;;4975607;28;20479;-66
2021/04/15 09:34:10;;;;;;;2.40;1.10;;;;;;;;;;4957544;28;20456;-66
2021/04/15 09:36:43;;;;;;;3.87;0.83;;;;;;;;;;4959414;28;20476;-65
2021/04/15 09:39:16;;;;;;;2.50;0.90;;;;;;;;;;4969702;28;20460;-65
2021/04/15 09:42:00;;;;;;;3.40;1.20;;;;;;;;;;4975357;28;20478;-66
2021/04/15 09:44:41;;;;;;;1.60;1.03;;;;;;;;;;4973900;28;20452;-66
2021/04/15 09:47:15;;;;;;;1.20;0.77;;;;;;;;;;4973379;28;20986;-65
2021/04/15 09:49:51;;;;;;;1.97;0.70;;;;;;;;;;4974870;28;20475;-65
2021/04/15 09:52:31;;;;;;;1.90;0.80;;;;;;;;;;4971635;28;20459;-66
2021/04/15 09:55:15;;;;;;;1.83;0.80;;;;;;;;;;4955913;28;20503;-65
2021/04/15 09:57:44;;;;;;;2.20;0.70;;;;;;;;;;4961472;28;20467;-66
2021/04/15 10:00:15;;;;;;;2.83;0.80;;;;;;;;;;4974137;28;20475;-66
2021/04/15 10:02:48;;;;;;;1.00;0.70;;;;;;;;;;4963251;28;20492;-66
2021/04/15 10:05:17;;;;;;;1.13;0.70;;;;;;;;;;4963119;28;20639;-68
2021/04/15 10:07:49;;;;;;;1.30;0.60;;;;;;;;;;4964842;28;20460;-65
2021/04/15 10:10:20;;;;;;;2.60;0.77;;;;;;;;;;4964618;28;20511;-66
2021/04/15 10:13:02;;;;;;;2.50;0.77;;;;;;;;;;4961563;28;20466;-66
2021/04/15 10:15:40;;;;;;;1.10;0.70;;;;;;;;;;4972514;28;20447;-65
2021/04/15 10:18:18;;;;;;;1.83;0.60;;;;;;;;;;4964641;28;20833;-66
2021/04/15 10:21:03;;;;;;;1.40;0.60;;;;;;;;;;4955751;28;20476;-65
2021/04/15 10:23:48;;;;;;;1.10;0.70;;;;;;;;;;4966341;28;20451;-65
2021/04/15 10:26:21;;;;;;;1.83;1.00;;;;;;;;;;4957202;28;20947;-65
2021/04/15 10:28:55;;;;;;;1.43;0.63;;;;;;;;;;4955444;29;20440;-65
2021/04/15 10:31:36;;;;;;;1.10;0.60;;;;;;;;;;4962480;28;20830;-64
2021/04/15 10:34:12;;;;;;;1.73;0.90;;;;;;;;;;5003256;23;20494;-67
2021/04/15 10:36:51;;;;;;;1.93;0.70;;;;;;;;;;4990096;28;20451;-68
2021/04/15 10:39:32;;;;;;;1.20;0.70;;;;;;;;;;4974185;28;20454;-68
2021/04/15 10:42:15;;;;;;;1.30;0.80;;;;;;;;;;4952113;28;20494;-67
2021/04/15 10:44:51;;;;;;;1.17;0.60;;;;;;;;;;4959270;28;20464;-68
2021/04/15 10:47:27;;;;;;;1.07;0.80;;;;;;;;;;4972578;28;20471;-67
2021/04/15 10:49:59;;;;;;;2.10;0.80;;;;;;;;;;4971025;28;20464;-68
2021/04/15 10:52:43;;;;;;;1.30;0.80;;;;;;;;;;4959908;28;20614;-68
2021/04/15 10:55:19;;;;;;;1.30;0.90;;;;;;;;;;4972802;28;20953;-67
2021/04/15 10:57:45;;;;;;;1.00;0.60;;;;;;;;;;4973335;28;20927;-67
2021/04/15 11:00:19;;;;;;;1.03;0.77;;;;;;;;;;4965026;28;20513;-67
2021/04/15 11:02:49;;;;;;;0.90;0.60;;;;;;;;;;4961687;28;20494;-67
2021/04/15 11:05:18;;;;;;;1.27;0.50;;;;;;;;;;4958194;28;20927;-66
2021/04/15 11:07:45;;;;;;;0.90;0.63;;;;;;;;;;4972886;28;20459;-67
2021/04/15 11:10:18;;;;;;;1.77;0.80;;;;;;;;;;4972260;28;20464;-68
2021/04/15 11:12:45;;;;;;;0.90;0.70;;;;;;;;;;4972023;28;20475;-66
2021/04/15 11:15:14;;;;;;;0.80;0.50;;;;;;;;;;4954716;28;20460;-67
2021/04/15 11:17:42;;;;;;;1.07;0.67;;;;;;;;;;4954288;28;20452;-65
2021/04/15 11:20:11;;;;;;;1.87;1.00;;;;;;;;;;4966591;28;20463;-65
2021/04/15 11:22:40;;;;;;;1.20;0.63;;;;;;;;;;4970708;28;20571;-65
2021/04/15 11:25:20;;;;;;;2.20;0.83;;;;;;;;;;4972105;28;20514;-65
2021/04/15 11:27:48;;;;;;;1.43;0.87;;;;;;;;;;4966351;28;20455;-66
2021/04/15 11:30:28;;;;;;;1.10;0.60;;;;;;;;;;4972939;28;20513;-64
2021/04/15 11:32:55;;;;;;;1.10;0.80;;;;;;;;;;4972486;28;21124;-64
2021/04/15 11:35:23;;;;;;;1.20;0.70;;;;;;;;;;4969490;28;21022;-64
2021/04/15 11:37:52;;;;;;;1.13;0.60;;;;;;;;;;4964699;28;20461;-65
2021/04/15 11:40:22;;;;;;;0.97;0.63;;;;;;;;;;4965056;28;20444;-64
2021/04/15 11:42:50;;;;;;;1.27;1.00;;;;;;;;;;4965917;28;20498;-64
2021/04/15 11:45:26;;;;;;;1.30;1.10;;;;;;;;;;4966576;28;21017;-64
2021/04/15 11:47:53;;;;;;;1.70;1.60;;;;;;;;;;4954181;29;20522;-64
2021/04/15 11:50:21;;;;;;;2.13;1.60;;;;;;;;;;4954867;28;20452;-69
2021/04/15 11:52:51;;;;;;;2.00;1.70;;;;;;;;;;4955705;28;20996;-68
2021/04/15 11:55:25;;;;;;;2.27;2.07;;;;;;;;;;4957777;28;20472;-69
2021/04/15 11:57:56;;;;;;;1.90;1.50;;;;;;;;;;4953699;29;20436;-66
2021/04/15 12:00:24;;;;;;;1.60;1.50;;;;;;;;;;4955107;28;20455;-65
2021/04/15 12:03:04;;;;;;;2.13;1.40;;;;;;;;;;4969932;28;20487;-66
2021/04/15 12:05:32;;;;;;;1.53;1.40;;;;;;;;;;4972641;28;20451;-68
2021/04/15 12:08:01;;;;;;;2.03;1.50;;;;;;;;;;4972023;28;20482;-68
2021/04/15 12:10:31;;;;;;;1.90;1.70;;;;;;;;;;4972645;28;20474;-65
2021/04/15 12:13:01;;;;;;;3.33;1.50;;;;;;;;;;4972919;28;20463;-66
2021/04/15 12:15:31;;;;;;;1.63;1.53;;;;;;;;;;4972470;28;20470;-65
2021/04/15 12:17:58;;;;;;;2.50;1.40;;;;;;;;;;4974259;28;20458;-66
2021/04/15 12:20:29;;;;;;;2.03;1.43;;;;;;;;;;4976909;28;20447;-67
2021/04/15 12:23:00;;;;;;;1.93;1.50;;;;;;;;;;4975232;28;20493;-65
2021/04/15 12:25:30;;;;;;;2.07;1.50;;;;;;;;;;4976355;28;20447;-68
2021/04/15 12:28:02;;;;;;;2.00;1.57;;;;;;;;;;4976960;28;20451;-66
2021/04/15 12:30:32;;;;;;;2.27;1.43;;;;;;;;;;4976642;28;20480;-66
2021/04/15 12:33:03;;;;;;;2.60;1.37;;;;;;;;;;4976630;28;20850;-66
2021/04/15 12:35:32;;;;;;;1.40;1.30;;;;;;;;;;4976471;28;20435;-65
2021/04/15 12:38:02;;;;;;;2.83;2.00;;;;;;;;;;4976448;28;20861;-65
2021/04/15 12:40:34;;;;;;;1.63;1.40;;;;;;;;;;4976672;28;20453;-65
2021/04/15 12:43:06;;;;;;;2.13;1.67;;;;;;;;;;4975577;28;20549;-65
2021/04/15 12:45:34;;;;;;;1.73;1.50;;;;;;;;;;4975860;28;20961;-65
2021/04/15 12:48:03;;;;;;;1.70;1.60;;;;;;;;;;4976311;28;20443;-65
2021/04/15 12:50:30;;;;;;;4.03;1.80;;;;;;;;;;4976334;28;20458;-67
2021/04/15 12:52:57;;;;;;;1.63;1.53;;;;;;;;;;4976169;28;20840;-65
2021/04/15 12:55:25;;;;;;;1.87;1.77;;;;;;;;;;4976075;28;20833;-65
2021/04/15 12:57:52;;;;;;;1.50;1.40;;;;;;;;;;4975765;28;20943;-68
2021/04/15 13:00:23;;;;;;;2.17;1.50;;;;;;;;;;4976445;28;20612;-65
2021/04/15 13:02:51;;;;;;;1.80;1.70;;;;;;;;;;4976076;28;20498;-65
2021/04/15 13:05:33;;;;;;;1.30;1.20;;;;;;;;;;4965131;28;20484;-65
2021/04/15 13:08:20;;;;;;;3.13;1.40;;;;;;;;;;4956344;29;20452;-65
2021/04/15 13:10:47;;;;;;;1.70;1.23;;;;;;;;;;4956850;29;20846;-65
2021/04/15 13:13:19;;;;;;;1.40;1.10;;;;;;;;;;4956285;29;20471;-65
2021/04/15 13:15:47;;;;;;;1.43;1.33;;;;;;;;;;4955962;29;20985;-67
2021/04/15 13:18:34;;;;;;;1.73;1.40;;;;;;;;;;4957430;29;20824;-66
2021/04/15 13:21:07;;;;;;;2.50;1.60;;;;;;;;;;4956528;29;20448;-66
2021/04/15 13:23:38;;;;;;;2.30;1.97;;;;;;;;;;4956483;29;20542;-65
2021/04/15 13:26:24;;;;;;;3.70;1.80;;;;;;;;;;4968744;28;20486;-65
2021/04/15 13:29:14;;;;;;;2.77;1.63;;;;;;;;;;4974985;28;20451;-68
2021/04/15 13:31:44;;;;;;;1.70;1.60;;;;;;;;;;4960813;28;20458;-67
2021/04/15 13:34:11;;;;;;;3.27;1.90;;;;;;;;;;4975379;28;20478;-69
2021/04/15 13:36:39;;;;;;;2.00;1.90;;;;;;;;;;4975053;28;20820;-66
2021/04/15 13:39:23;;;;;;;3.83;2.10;;;;;;;;;;4976609;28;20947;-65
2021/04/15 13:41:58;;;;;;;2.30;2.10;;;;;;;;;;4975256;28;20510;-64
2021/04/15 13:44:43;;;;;;;2.30;1.90;;;;;;;;;;4975103;28;20525;-65
2021/04/15 13:47:24;;;;;;;1.97;1.83;;;;;;;;;;4955952;29;20452;-65
2021/04/15 13:49:52;;;;;;;2.13;1.93;;;;;;;;;;4963347;28;20966;-65
2021/04/15 13:52:31;;;;;;;3.07;1.77;;;;;;;;;;4955992;29;20783;-65
2021/04/15 13:54:57;;;;;;;3.00;1.63;;;;;;;;;;4955793;29;20872;-65
2021/04/15 13:57:26;;;;;;;2.77;1.90;;;;;;;;;;4956338;29;20460;-65
2021/04/15 13:59:54;;;;;;;2.60;1.50;;;;;;;;;;4955894;28;20484;-65
2021/04/15 14:02:32;;;;;;;1.73;1.43;;;;;;;;;;4955640;28;20506;-68
2021/04/15 14:05:01;;;;;;;1.77;1.57;;;;;;;;;;4955689;28;20532;-65
2021/04/15 14:07:29;;;;;;;1.33;1.23;;;;;;;;;;4955175;29;20999;-65
2021/04/15 14:09:57;;;;;;;3.20;2.00;;;;;;;;;;4955253;29;20452;-65
2021/04/15 14:12:37;;;;;;;1.70;1.60;;;;;;;;;;4955648;29;20444;-65
2021/04/15 14:15:05;;;;;;;1.83;1.73;;;;;;;;;;4955643;29;20459;-65
2021/04/15 14:17:31;;;;;;;6.43;1.87;;;;;;;;;;4955944;29;20452;-68
2021/04/15 14:20:09;;;;;;;1.90;1.47;;;;;;;;;;4959737;28;20467;-67
2021/04/15 14:22:36;;;;;;;1.10;1.00;;;;;;;;;;4974325;28;20850;-65
2021/04/15 14:25:09;;;;;;;1.40;1.07;;;;;;;;;;4968703;28;20483;-65
2021/04/15 14:27:36;;;;;;;1.13;0.90;;;;;;;;;;4961714;28;20463;-65
2021/04/15 14:30:10;;;;;;;1.60;1.03;;;;;;;;;;4963029;28;20457;-65
2021/04/15 14:32:39;;;;;;;1.13;0.80;;;;;;;;;;4955657;28;20522;-65
2021/04/15 14:35:23;;;;;;;1.40;1.10;;;;;;;;;;4955462;29;20584;-65
2021/04/15 14:37:50;;;;;;;3.87;1.40;;;;;;;;;;4967288;28;20451;-68
2021/04/15 14:40:27;;;;;;;1.83;0.63;;;;;;;;;;4973884;28;20452;-66
2021/04/15 14:42:54;;;;;;;2.10;1.63;;;;;;;;;;4960470;28;20494;-67
2021/04/15 14:45:22;;;;;;;2.73;1.80;;;;;;;;;;4958521;28;20456;-67
2021/04/15 14:47:50;;;;;;;1.67;1.57;;;;;;;;;;4969860;28;21067;-67
2021/04/15 14:50:20;;;;;;;1.40;1.30;;;;;;;;;;4974733;28;20452;-67
2021/04/15 14:52:48;;;;;;;1.63;1.00;;;;;;;;;;4960289;28;20475;-66
2021/04/15 14:55:24;;;;;;;2.10;1.30;;;;;;;;;;4955161;29;20824;-72
2021/04/15 14:57:58;;;;;;;1.97;1.30;;;;;;;;;;4954948;28;20875;-67
2021/04/15 15:00:26;;;;;;;2.20;2.00;;;;;;;;;;4955860;28;20965;-67
2021/04/15 15:02:55;;;;;;;2.70;2.00;;;;;;;;;;4964017;28;21011;-66
2021/04/15 15:05:24;;;;;;;2.43;1.80;;;;;;;;;;4958999;28;20457;-67
2021/04/15 15:07:51;;;;;;;2.13;1.80;;;;;;;;;;4954461;29;20944;-66